Time;durP1;ratioP1;P1;durP2;ratioP2;P2;SDS_P1;SDS_P2;PMS_P1;PMS_P2;Temp;Humidity;BMP_temperature;BMP_pressure;BME280_temperature;BME280_humidity;BME280_pressure;Samples;Min_cycle;Max_cycle;Signal;HPM_P1;HPM_P2
2023/04/29 00:01:18;;;;;;;0.70;0.70;;;1.30;99.90;;;;;;5016295;28;20195;-70
2023/04/29 00:03:44;;;;;;;0.70;0.70;;;1.30;99.90;;;;;;5031973;28;20260;-70
2023/04/29 00:06:12;;;;;;;0.70;0.70;;;1.30;99.90;;;;;;5036176;28;20255;-69
2023/04/29 00:08:38;;;;;;;0.63;0.63;;;1.30;99.90;;;;;;5035957;28;20213;-69
2023/04/29 00:11:05;;;;;;;1.27;1.17;;;1.30;99.90;;;;;;5018371;28;20202;-69
2023/04/29 00:13:30;;;;;;;0.80;0.80;;;1.30;99.90;;;;;;5035866;28;20202;-69
2023/04/29 00:15:56;;;;;;;0.50;0.50;;;1.20;99.90;;;;;;5036120;28;20213;-69
2023/04/29 00:18:22;;;;;;;0.70;0.70;;;1.20;99.90;;;;;;5034700;28;20194;-69
2023/04/29 00:20:48;;;;;;;0.80;0.80;;;1.20;99.90;;;;;;5035922;28;20244;-69
2023/04/29 00:23:13;;;;;;;0.70;0.70;;;1.20;99.90;;;;;;5018248;28;20195;-70
2023/04/29 00:25:39;;;;;;;0.70;0.70;;;1.20;99.90;;;;;;5035612;28;20329;-69
2023/04/29 00:28:05;;;;;;;0.70;0.70;;;1.20;99.90;;;;;;5026022;28;20206;-69
2023/04/29 00:30:32;;;;;;;1.10;1.02;;;1.20;99.90;;;;;;5015652;28;20568;-70
2023/04/29 00:32:58;;;;;;;0.60;0.60;;;1.10;99.90;;;;;;5015945;28;20183;-69
2023/04/29 00:35:23;;;;;;;0.73;0.73;;;1.10;99.90;;;;;;5014977;28;20536;-70
2023/04/29 00:37:49;;;;;;;0.70;0.70;;;1.00;99.90;;;;;;5015960;28;20191;-70
2023/04/29 00:40:16;;;;;;;0.75;0.75;;;0.90;99.90;;;;;;5015001;28;20281;-69
2023/04/29 00:42:42;;;;;;;0.70;0.70;;;0.90;99.90;;;;;;5015624;28;20662;-70
2023/04/29 00:45:10;;;;;;;1.33;1.23;;;0.90;99.90;;;;;;5015910;28;20199;-69
2023/04/29 00:47:36;;;;;;;0.70;0.70;;;0.90;99.90;;;;;;5015167;28;20272;-69
2023/04/29 00:50:03;;;;;;;0.63;0.63;;;0.90;99.90;;;;;;5015650;28;20206;-69
2023/04/29 00:52:32;;;;;;;0.70;0.70;;;0.90;99.90;;;;;;5015405;28;20195;-69
2023/04/29 00:54:58;;;;;;;0.60;0.60;;;1.00;99.90;;;;;;5015574;28;20230;-70
2023/04/29 00:57:27;;;;;;;0.80;0.80;;;1.00;99.90;;;;;;5015354;28;20722;-70
2023/04/29 00:59:54;;;;;;;0.68;0.68;;;1.10;99.90;;;;;;5030484;28;20205;-70
2023/04/29 01:02:20;;;;;;;0.52;0.52;;;1.10;99.90;;;;;;5052990;22;20636;-69
2023/04/29 01:04:46;;;;;;;0.60;0.60;;;1.20;99.90;;;;;;5036172;28;20276;-67
2023/04/29 01:07:30;;;;;;;0.80;0.80;;;1.20;99.90;;;;;;5054987;28;20190;-67
2023/04/29 01:10:04;;;;;;;0.60;0.60;;;1.30;99.90;;;;;;5022612;28;20213;-69
2023/04/29 01:12:33;;;;;;;0.70;0.70;;;1.30;99.90;;;;;;5035100;28;20198;-69
2023/04/29 01:15:01;;;;;;;0.70;0.70;;;1.40;99.90;;;;;;5034872;28;20240;-69
2023/04/29 01:17:30;;;;;;;0.80;0.80;;;1.50;99.90;;;;;;5034364;28;20198;-67
2023/04/29 01:19:57;;;;;;;0.80;0.80;;;1.50;99.90;;;;;;5017335;28;20239;-69
2023/04/29 01:22:23;;;;;;;0.65;0.65;;;1.60;99.90;;;;;;5034746;28;20723;-69
2023/04/29 01:24:49;;;;;;;0.70;0.70;;;1.60;99.90;;;;;;5030725;28;20225;-68
2023/04/29 01:27:47;;;;;;;0.60;0.60;;;1.60;99.90;;;;;;5036918;28;20201;-67
2023/04/29 01:30:30;;;;;;;0.80;0.80;;;1.70;99.90;;;;;;5037210;28;20213;-70
2023/04/29 01:33:21;;;;;;;0.70;0.70;;;1.70;99.90;;;;;;5054865;28;20200;-69
2023/04/29 01:35:53;;;;;;;0.70;0.70;;;1.70;99.90;;;;;;5036794;28;20667;-70
2023/04/29 01:38:40;;;;;;;0.73;0.73;;;1.70;99.90;;;;;;5054645;28;20194;-70
2023/04/29 01:41:12;;;;;;;0.70;0.70;;;1.70;99.90;;;;;;5054759;28;20174;-69
2023/04/29 01:43:39;;;;;;;0.70;0.70;;;1.60;99.90;;;;;;5054098;28;20261;-69
2023/04/29 01:46:08;;;;;;;0.68;0.68;;;1.60;99.90;;;;;;5036642;28;20664;-69
2023/04/29 01:48:34;;;;;;;0.73;0.73;;;1.40;99.90;;;;;;5053934;28;20263;-69
2023/04/29 01:51:00;;;;;;;0.65;0.65;;;1.30;99.90;;;;;;5053194;28;20658;-69
2023/04/29 01:53:26;;;;;;;0.70;0.70;;;1.20;99.90;;;;;;5053702;28;20197;-68
2023/04/29 01:55:51;;;;;;;1.38;1.27;;;1.10;99.90;;;;;;5054048;28;20276;-68
2023/04/29 01:58:17;;;;;;;0.70;0.70;;;1.00;99.90;;;;;;5054205;28;20197;-69
2023/04/29 02:00:43;;;;;;;0.70;0.70;;;0.90;99.90;;;;;;5053431;28;20198;-69
2023/04/29 02:03:09;;;;;;;0.70;0.70;;;0.80;99.90;;;;;;5053568;28;20237;-69
2023/04/29 02:05:35;;;;;;;0.63;0.63;;;0.80;99.90;;;;;;5035851;28;20197;-68
2023/04/29 02:08:01;;;;;;;0.70;0.70;;;0.80;99.90;;;;;;5053927;28;20193;-69
2023/04/29 02:10:27;;;;;;;0.70;0.70;;;0.80;99.90;;;;;;5053516;28;20620;-69
2023/04/29 02:12:53;;;;;;;0.80;0.80;;;0.80;99.90;;;;;;5053882;28;20193;-67
2023/04/29 02:15:20;;;;;;;0.70;0.70;;;0.80;99.90;;;;;;5053897;28;20192;-67
2023/04/29 02:17:46;;;;;;;0.70;0.70;;;0.80;99.90;;;;;;5053716;28;20276;-67
2023/04/29 02:20:12;;;;;;;0.90;0.90;;;0.70;99.90;;;;;;5053767;28;20235;-67
2023/04/29 02:22:38;;;;;;;0.70;0.70;;;0.70;99.90;;;;;;5053629;28;20202;-67
2023/04/29 02:25:05;;;;;;;0.80;0.80;;;0.80;99.90;;;;;;5053878;28;20197;-67
2023/04/29 02:27:31;;;;;;;0.57;0.57;;;0.80;99.90;;;;;;5053196;28;20185;-67
2023/04/29 02:29:56;;;;;;;0.70;0.70;;;0.90;99.90;;;;;;5053160;28;20555;-67
2023/04/29 02:32:22;;;;;;;0.70;0.70;;;0.90;99.90;;;;;;5035461;28;20201;-67
2023/04/29 02:34:48;;;;;;;0.80;0.80;;;0.90;99.90;;;;;;5049540;28;20194;-67
2023/04/29 02:37:14;;;;;;;0.60;0.60;;;0.80;99.90;;;;;;5015900;28;20226;-67
2023/04/29 02:39:43;;;;;;;0.70;0.70;;;0.80;99.90;;;;;;5033421;28;20303;-69
2023/04/29 02:42:08;;;;;;;0.80;0.80;;;0.80;99.90;;;;;;5033625;28;20558;-69
2023/04/29 02:44:34;;;;;;;0.80;0.80;;;0.70;99.90;;;;;;5015615;28;20212;-68
2023/04/29 02:47:00;;;;;;;0.50;0.50;;;0.70;99.90;;;;;;5015859;28;20672;-68
2023/04/29 02:49:26;;;;;;;0.60;0.60;;;0.80;99.90;;;;;;5032989;28;20202;-68
2023/04/29 02:51:53;;;;;;;0.60;0.60;;;0.70;99.90;;;;;;5044172;28;20221;-69
2023/04/29 02:54:18;;;;;;;0.52;0.52;;;0.70;99.90;;;;;;5053249;28;20195;-69
2023/04/29 02:56:44;;;;;;;0.80;0.80;;;0.70;99.90;;;;;;5053547;28;20193;-69
2023/04/29 02:59:10;;;;;;;0.60;0.60;;;0.70;99.90;;;;;;5053274;28;20224;-67
2023/04/29 03:01:37;;;;;;;0.70;0.70;;;0.70;99.90;;;;;;5025859;28;20205;-69
2023/04/29 03:04:03;;;;;;;0.63;0.63;;;0.60;99.90;;;;;;5052270;28;20320;-67
2023/04/29 03:06:30;;;;;;;0.70;0.70;;;0.60;99.90;;;;;;5017650;28;20287;-67
2023/04/29 03:08:56;;;;;;;0.70;0.70;;;0.60;99.90;;;;;;5032729;28;20703;-69
2023/04/29 03:11:23;;;;;;;0.70;0.70;;;0.60;99.90;;;;;;5032975;28;20190;-69
2023/04/29 03:13:49;;;;;;;0.55;0.55;;;0.60;99.90;;;;;;5033137;28;20236;-68
2023/04/29 03:16:15;;;;;;;0.60;0.60;;;0.60;99.90;;;;;;5037794;28;20185;-68
2023/04/29 03:18:42;;;;;;;0.80;0.80;;;0.60;99.90;;;;;;5052813;28;20190;-68
2023/04/29 03:21:08;;;;;;;1.70;1.58;;;0.60;99.90;;;;;;5052941;28;20193;-68
2023/04/29 03:23:34;;;;;;;0.70;0.70;;;0.70;99.90;;;;;;5052761;28;20204;-69
2023/04/29 03:26:00;;;;;;;0.60;0.60;;;0.70;99.90;;;;;;5052976;28;20277;-70
2023/04/29 03:28:26;;;;;;;0.70;0.70;;;0.70;99.90;;;;;;5052398;28;20688;-69
2023/04/29 03:30:52;;;;;;;1.02;1.00;;;0.70;99.90;;;;;;5052901;28;20193;-66
2023/04/29 03:33:17;;;;;;;0.60;0.60;;;0.80;99.90;;;;;;5052799;28;20551;-69
2023/04/29 03:35:44;;;;;;;0.60;0.60;;;0.80;99.90;;;;;;5041001;28;20213;-69
2023/04/29 03:38:10;;;;;;;0.50;0.50;;;0.90;99.90;;;;;;5032855;28;20186;-69
2023/04/29 03:40:36;;;;;;;0.63;0.63;;;1.00;99.90;;;;;;5032827;28;20174;-68
2023/04/29 03:43:02;;;;;;;0.68;0.68;;;1.00;99.90;;;;;;5032972;28;20202;-68
2023/04/29 03:45:28;;;;;;;0.70;0.70;;;1.10;99.90;;;;;;5032334;28;20217;-68
2023/04/29 03:47:54;;;;;;;0.60;0.60;;;1.10;99.90;;;;;;5023515;28;20212;-68
2023/04/29 03:50:20;;;;;;;0.68;0.68;;;1.10;99.90;;;;;;5034400;28;20312;-68
2023/04/29 03:52:46;;;;;;;0.70;0.70;;;1.20;99.90;;;;;;5052654;28;20205;-68
2023/04/29 03:55:12;;;;;;;0.60;0.60;;;1.30;99.90;;;;;;5052661;28;20200;-68
2023/04/29 03:57:38;;;;;;;0.70;0.70;;;1.30;99.90;;;;;;5052466;28;20672;-68
2023/04/29 04:00:04;;;;;;;0.60;0.60;;;1.30;99.90;;;;;;5052745;28;20263;-68
2023/04/29 04:02:30;;;;;;;0.50;0.50;;;1.30;99.90;;;;;;5051744;28;20233;-68
2023/04/29 04:04:57;;;;;;;0.70;0.70;;;1.30;99.90;;;;;;5034725;28;20286;-68
2023/04/29 04:07:23;;;;;;;0.70;0.70;;;1.40;99.90;;;;;;5034479;28;20703;-68
2023/04/29 04:09:49;;;;;;;0.70;0.70;;;1.30;99.90;;;;;;5052486;28;20210;-68
2023/04/29 04:12:15;;;;;;;0.70;0.70;;;1.40;99.90;;;;;;5034260;28;20220;-68
2023/04/29 04:14:41;;;;;;;0.80;0.80;;;1.40;99.90;;;;;;5053023;28;20194;-69
2023/04/29 04:17:34;;;;;;;1.02;1.00;;;1.40;99.90;;;;;;5057236;28;20615;-71
2023/04/29 04:20:12;;;;;;;0.70;0.70;;;1.50;99.90;;;;;;5040792;28;20259;-69
2023/04/29 04:22:38;;;;;;;0.73;0.73;;;1.60;99.90;;;;;;5055817;28;20271;-68
2023/04/29 04:25:04;;;;;;;0.80;0.80;;;1.60;99.90;;;;;;5056039;28;20198;-68
2023/04/29 04:27:30;;;;;;;0.80;0.80;;;1.70;99.90;;;;;;5055620;28;20229;-68
2023/04/29 04:29:56;;;;;;;0.80;0.80;;;1.80;99.90;;;;;;5055825;28;20248;-68
2023/04/29 04:32:22;;;;;;;1.00;1.00;;;1.80;99.90;;;;;;5055532;28;20189;-68
2023/04/29 04:35:31;;;;;;;0.70;0.70;;;1.90;99.90;;;;;;5052015;28;20196;-70
2023/04/29 04:37:58;;;;;;;0.60;0.60;;;2.00;99.90;;;;;;4974607;28;20192;-68
2023/04/29 04:40:23;;;;;;;0.80;0.80;;;2.10;99.90;;;;;;5009005;28;20221;-69
2023/04/29 04:42:49;;;;;;;0.70;0.70;;;2.10;99.90;;;;;;5019280;28;20202;-68
2023/04/29 04:45:16;;;;;;;0.70;0.70;;;2.20;99.90;;;;;;5053282;28;20220;-68
2023/04/29 04:47:42;;;;;;;0.73;0.73;;;2.30;99.90;;;;;;5055217;28;20197;-68
2023/04/29 04:50:08;;;;;;;0.70;0.70;;;2.40;99.90;;;;;;5055443;28;20229;-68
2023/04/29 04:52:34;;;;;;;0.70;0.70;;;2.50;99.90;;;;;;5055491;28;20280;-68
2023/04/29 04:55:00;;;;;;;0.80;0.80;;;2.70;99.90;;;;;;5055525;28;20241;-68
2023/04/29 04:57:26;;;;;;;0.60;0.60;;;2.80;99.90;;;;;;5037211;28;20229;-68
2023/04/29 04:59:52;;;;;;;0.60;0.60;;;2.90;99.90;;;;;;5055360;28;20663;-68
2023/04/29 05:02:18;;;;;;;0.63;0.63;;;3.10;99.90;;;;;;5036195;28;20237;-68
2023/04/29 05:04:43;;;;;;;0.70;0.70;;;3.20;99.90;;;;;;5055272;28;20202;-68
2023/04/29 05:07:09;;;;;;;0.70;0.70;;;3.30;99.90;;;;;;5055471;28;20273;-68
2023/04/29 05:09:36;;;;;;;0.70;0.70;;;3.40;99.90;;;;;;5054710;28;20210;-68
2023/04/29 05:12:02;;;;;;;0.80;0.80;;;3.50;99.90;;;;;;5055254;28;20190;-68
2023/04/29 05:14:27;;;;;;;0.88;0.88;;;3.70;99.90;;;;;;5054981;28;20280;-68
2023/04/29 05:16:58;;;;;;;0.80;0.80;;;3.70;99.90;;;;;;5055020;28;20195;-68
2023/04/29 05:19:23;;;;;;;0.65;0.65;;;3.90;99.90;;;;;;5054763;28;20719;-69
2023/04/29 05:21:49;;;;;;;0.70;0.70;;;4.00;99.90;;;;;;5054915;28;20277;-69
2023/04/29 05:24:15;;;;;;;0.70;0.70;;;4.10;99.90;;;;;;5054847;28;20193;-68
2023/04/29 05:26:42;;;;;;;0.70;0.70;;;4.20;99.90;;;;;;5054498;28;20615;-69
2023/04/29 05:29:11;;;;;;;0.70;0.70;;;4.30;99.90;;;;;;5054810;28;20197;-69
2023/04/29 05:31:37;;;;;;;0.80;0.80;;;4.40;99.90;;;;;;5054627;28;20192;-69
2023/04/29 05:34:04;;;;;;;0.65;0.65;;;4.60;99.90;;;;;;5054784;28;20185;-69
2023/04/29 05:36:30;;;;;;;0.70;0.70;;;4.80;99.90;;;;;;5036401;28;20205;-69
2023/04/29 05:38:56;;;;;;;0.77;0.77;;;4.90;99.90;;;;;;5016884;28;20205;-69
2023/04/29 05:41:23;;;;;;;0.60;0.60;;;5.10;99.90;;;;;;5050811;28;20201;-69
2023/04/29 05:43:50;;;;;;;0.80;0.80;;;5.20;99.90;;;;;;5053963;28;20198;-69
2023/04/29 05:46:15;;;;;;;0.80;0.80;;;5.30;99.90;;;;;;5054367;28;20743;-68
2023/04/29 05:48:41;;;;;;;0.80;0.80;;;5.40;99.90;;;;;;5054155;28;20220;-69
2023/04/29 05:51:07;;;;;;;0.60;0.60;;;5.50;99.90;;;;;;5036333;28;20225;-69
2023/04/29 05:53:34;;;;;;;0.70;0.70;;;5.80;99.90;;;;;;5053972;28;20208;-69
2023/04/29 05:56:07;;;;;;;0.80;0.80;;;6.00;99.90;;;;;;5036473;28;20233;-70
2023/04/29 05:58:33;;;;;;;0.60;0.60;;;6.00;99.90;;;;;;5054025;28;20190;-69
2023/04/29 06:00:59;;;;;;;0.70;0.70;;;6.30;99.90;;;;;;5054469;28;20551;-69
2023/04/29 06:03:25;;;;;;;0.70;0.70;;;6.50;99.90;;;;;;5035618;28;20233;-69
2023/04/29 06:05:50;;;;;;;0.70;0.70;;;6.70;99.90;;;;;;5053962;28;20194;-69
2023/04/29 06:08:16;;;;;;;0.70;0.70;;;6.90;99.90;;;;;;5053941;28;20536;-69
2023/04/29 06:10:42;;;;;;;0.70;0.70;;;7.10;99.90;;;;;;5053876;28;20274;-69
2023/04/29 06:13:08;;;;;;;0.70;0.70;;;7.20;99.90;;;;;;5053959;28;20656;-69
2023/04/29 06:15:33;;;;;;;0.70;0.70;;;7.10;99.90;;;;;;5053637;28;20197;-69
2023/04/29 06:17:59;;;;;;;0.70;0.70;;;7.20;99.90;;;;;;5053708;28;20198;-69
2023/04/29 06:20:25;;;;;;;0.70;0.70;;;7.20;99.90;;;;;;5053597;28;20660;-69
2023/04/29 06:22:51;;;;;;;0.65;0.65;;;7.20;99.90;;;;;;5053161;28;20655;-69
2023/04/29 06:25:17;;;;;;;0.70;0.70;;;7.40;99.90;;;;;;5053755;28;20200;-69
2023/04/29 06:27:42;;;;;;;0.80;0.80;;;7.50;99.90;;;;;;5053451;28;20229;-69
2023/04/29 06:30:09;;;;;;;0.80;0.80;;;7.50;99.90;;;;;;5053661;28;20210;-68
2023/04/29 06:32:34;;;;;;;0.60;0.60;;;7.60;99.90;;;;;;5053441;28;20201;-68
2023/04/29 06:35:00;;;;;;;0.60;0.60;;;7.70;99.90;;;;;;5047764;28;20653;-68
2023/04/29 06:37:27;;;;;;;0.70;0.70;;;7.70;99.90;;;;;;5048288;28;20193;-69
2023/04/29 06:39:53;;;;;;;0.60;0.60;;;8.00;99.90;;;;;;5053561;28;20197;-69
2023/04/29 06:42:19;;;;;;;0.70;0.70;;;8.30;99.90;;;;;;5053359;28;20194;-69
2023/04/29 06:44:45;;;;;;;0.60;0.60;;;8.20;99.90;;;;;;5035578;28;20205;-69
2023/04/29 06:47:11;;;;;;;0.70;0.70;;;8.30;99.90;;;;;;5053527;28;20243;-69
2023/04/29 06:49:36;;;;;;;0.60;0.60;;;8.20;99.90;;;;;;5052934;28;20244;-69
2023/04/29 06:52:02;;;;;;;0.70;0.70;;;8.50;99.90;;;;;;5053336;28;20185;-69
2023/04/29 06:54:29;;;;;;;0.68;0.68;;;8.50;99.90;;;;;;5053077;28;20173;-69
2023/04/29 06:56:54;;;;;;;0.77;0.77;;;8.60;99.90;;;;;;5053207;28;20216;-69
2023/04/29 06:59:20;;;;;;;0.70;0.70;;;8.80;99.90;;;;;;5052861;28;20194;-70
2023/04/29 07:01:46;;;;;;;0.60;0.60;;;8.70;99.90;;;;;;5052019;28;20301;-69
2023/04/29 07:04:11;;;;;;;0.65;0.65;;;8.80;99.90;;;;;;5053233;28;20250;-69
2023/04/29 07:06:37;;;;;;;0.60;0.60;;;9.00;99.90;;;;;;5052735;28;20255;-69
2023/04/29 07:09:03;;;;;;;0.60;0.60;;;9.00;99.90;;;;;;5053157;28;20566;-69
2023/04/29 07:11:29;;;;;;;0.70;0.70;;;9.10;99.90;;;;;;5052824;28;20189;-70
2023/04/29 07:13:55;;;;;;;0.60;0.60;;;9.10;99.90;;;;;;5035091;28;20201;-69
2023/04/29 07:16:21;;;;;;;0.60;0.60;;;9.00;99.90;;;;;;5052899;28;20264;-69
2023/04/29 07:18:49;;;;;;;0.70;0.70;;;9.20;99.90;;;;;;5052894;28;20193;-70
2023/04/29 07:21:15;;;;;;;0.70;0.70;;;9.20;99.90;;;;;;5035431;28;20193;-69
2023/04/29 07:23:41;;;;;;;0.70;0.70;;;9.20;99.90;;;;;;5052824;28;20193;-69
2023/04/29 07:26:14;;;;;;;0.60;0.60;;;9.20;99.90;;;;;;5052922;28;20193;-69
2023/04/29 07:28:44;;;;;;;0.70;0.70;;;9.20;99.90;;;;;;5034825;28;20597;-69
2023/04/29 07:31:13;;;;;;;0.60;0.60;;;9.30;99.90;;;;;;5052827;28;20193;-69
2023/04/29 07:33:39;;;;;;;0.60;0.60;;;9.30;99.90;;;;;;5052511;28;20689;-69
2023/04/29 07:36:06;;;;;;;0.80;0.80;;;9.10;99.90;;;;;;5046583;28;20197;-69
2023/04/29 07:38:32;;;;;;;0.60;0.60;;;9.00;99.90;;;;;;5034812;28;20205;-69
2023/04/29 07:40:58;;;;;;;0.60;0.60;;;8.70;99.90;;;;;;5034444;28;20210;-69
2023/04/29 07:43:24;;;;;;;0.82;0.82;;;8.50;99.90;;;;;;5051998;28;20253;-69
2023/04/29 07:45:50;;;;;;;0.70;0.70;;;8.40;99.90;;;;;;5052620;28;20276;-69
2023/04/29 07:48:15;;;;;;;0.70;0.70;;;8.30;99.90;;;;;;5052754;28;20197;-70
2023/04/29 07:50:41;;;;;;;0.63;0.63;;;8.10;99.90;;;;;;5036004;28;20742;-68
2023/04/29 07:53:07;;;;;;;0.70;0.70;;;8.00;99.90;;;;;;5036526;28;20218;-69
2023/04/29 07:55:33;;;;;;;0.70;0.70;;;8.00;99.90;;;;;;5036564;28;20248;-70
2023/04/29 07:57:59;;;;;;;0.60;0.60;;;8.00;99.90;;;;;;5028133;28;20189;-69
2023/04/29 08:00:26;;;;;;;0.70;0.70;;;8.10;99.90;;;;;;5038447;28;20234;-70
2023/04/29 08:02:53;;;;;;;0.70;0.70;;;8.20;99.90;;;;;;5056212;28;20233;-69
2023/04/29 08:05:20;;;;;;;0.60;0.60;;;8.10;99.90;;;;;;5056540;28;20733;-69
2023/04/29 08:07:52;;;;;;;0.68;0.68;;;8.10;99.90;;;;;;5056233;28;20197;-69
2023/04/29 08:10:18;;;;;;;0.70;0.70;;;8.10;99.90;;;;;;5039534;28;20621;-69
2023/04/29 08:12:47;;;;;;;0.70;0.70;;;8.00;99.90;;;;;;5036245;28;20710;-70
2023/04/29 08:15:13;;;;;;;0.70;0.70;;;7.90;99.90;;;;;;5018691;28;20202;-70
2023/04/29 08:17:39;;;;;;;0.70;0.70;;;8.00;99.90;;;;;;5036063;28;20217;-69
2023/04/29 08:20:07;;;;;;;0.60;0.60;;;8.10;99.90;;;;;;5036227;28;20207;-69
2023/04/29 08:22:33;;;;;;;1.08;0.82;;;8.20;99.90;;;;;;5018231;28;20202;-70
2023/04/29 08:24:58;;;;;;;0.65;0.65;;;8.20;99.90;;;;;;5035467;28;20244;-69
2023/04/29 08:27:24;;;;;;;0.80;0.80;;;8.20;99.90;;;;;;5017862;28;20578;-69
2023/04/29 08:29:50;;;;;;;0.70;0.70;;;8.00;99.90;;;;;;5032662;28;20220;-69
2023/04/29 08:32:16;;;;;;;0.70;0.70;;;8.10;99.90;;;;;;5055896;28;20684;-69
2023/04/29 08:34:43;;;;;;;0.60;0.60;;;8.10;99.90;;;;;;5055513;28;20212;-69
2023/04/29 08:37:09;;;;;;;1.17;1.08;;;8.20;99.90;;;;;;5037927;28;20189;-69
2023/04/29 08:39:35;;;;;;;1.10;1.10;;;8.50;99.90;;;;;;5055371;28;20289;-69
2023/04/29 08:42:08;;;;;;;0.80;0.80;;;8.60;99.90;;;;;;5055386;28;20225;-69
2023/04/29 08:44:34;;;;;;;0.60;0.60;;;8.60;99.90;;;;;;5055328;28;20197;-69
2023/04/29 08:47:01;;;;;;;0.70;0.70;;;8.60;99.90;;;;;;5055403;28;20719;-70
2023/04/29 08:49:28;;;;;;;0.70;0.70;;;8.50;99.90;;;;;;5055049;28;20667;-70
2023/04/29 08:51:54;;;;;;;0.70;0.70;;;8.50;99.90;;;;;;5037576;28;20691;-70
2023/04/29 08:54:20;;;;;;;0.70;0.70;;;8.40;99.90;;;;;;5055037;28;20194;-69
2023/04/29 08:56:47;;;;;;;0.70;0.70;;;8.30;99.90;;;;;;5055345;28;20197;-71
2023/04/29 08:59:16;;;;;;;0.60;0.60;;;8.20;99.90;;;;;;5055457;28;20193;-70
2023/04/29 09:01:43;;;;;;;0.65;0.65;;;8.10;99.90;;;;;;5036487;28;20205;-69
2023/04/29 09:04:31;;;;;;;5.93;2.90;;;7.80;99.90;;;;;;5054703;28;20282;-70
2023/04/29 09:06:58;;;;;;;0.70;0.70;;;7.80;99.90;;;;;;5035313;28;20194;-71
2023/04/29 09:09:24;;;;;;;0.63;0.63;;;7.60;99.90;;;;;;5034775;28;20190;-71
2023/04/29 09:11:51;;;;;;;0.70;0.70;;;7.60;99.90;;;;;;5034732;28;20178;-69
2023/04/29 09:14:18;;;;;;;0.60;0.60;;;7.60;99.90;;;;;;5035008;28;20214;-70
2023/04/29 09:16:46;;;;;;;0.70;0.70;;;7.60;99.90;;;;;;5034948;28;20194;-70
2023/04/29 09:19:29;;;;;;;0.70;0.70;;;7.50;99.90;;;;;;5034790;28;20225;-71
2023/04/29 09:21:56;;;;;;;0.70;0.70;;;7.50;99.90;;;;;;5034703;28;20194;-70
2023/04/29 09:24:26;;;;;;;0.70;0.70;;;7.50;99.90;;;;;;5035111;28;20194;-70
2023/04/29 09:26:52;;;;;;;2.67;1.98;;;7.60;99.90;;;;;;5054387;28;20189;-69
2023/04/29 09:29:18;;;;;;;0.63;0.63;;;7.50;99.90;;;;;;5054442;28;20209;-70
2023/04/29 09:31:44;;;;;;;0.90;0.90;;;7.50;99.90;;;;;;5054276;28;20275;-70
2023/04/29 09:34:11;;;;;;;0.63;0.63;;;7.40;99.90;;;;;;5054591;28;20223;-70
2023/04/29 09:36:49;;;;;;;0.88;0.88;;;7.20;99.90;;;;;;5036216;28;20710;-69
2023/04/29 09:39:17;;;;;;;0.70;0.70;;;7.10;99.90;;;;;;5036587;28;20731;-69
2023/04/29 09:41:52;;;;;;;0.70;0.70;;;7.00;99.90;;;;;;5054364;28;20255;-68
2023/04/29 09:44:21;;;;;;;0.60;0.60;;;6.80;99.90;;;;;;5054588;28;20197;-68
2023/04/29 09:47:07;;;;;;;0.70;0.70;;;6.50;99.90;;;;;;5054343;28;20729;-68
2023/04/29 09:49:39;;;;;;;0.68;0.68;;;6.40;99.90;;;;;;5036106;28;20201;-68
2023/04/29 09:52:08;;;;;;;0.60;0.60;;;6.20;99.90;;;;;;5054384;28;20679;-69
2023/04/29 09:54:35;;;;;;;0.60;0.60;;;6.10;99.90;;;;;;5053957;28;20188;-69
2023/04/29 09:57:04;;;;;;;0.55;0.55;;;6.10;99.90;;;;;;5054139;28;20194;-69
2023/04/29 09:59:34;;;;;;;0.85;0.85;;;6.10;99.90;;;;;;5054092;28;20186;-69
2023/04/29 10:02:03;;;;;;;1.02;1.02;;;6.00;99.90;;;;;;5025839;28;20284;-68
2023/04/29 10:04:31;;;;;;;0.70;0.70;;;6.10;99.90;;;;;;5034026;28;20282;-68
2023/04/29 10:07:02;;;;;;;0.60;0.60;;;6.10;99.90;;;;;;5034133;28;20190;-70
2023/04/29 10:09:29;;;;;;;0.68;0.68;;;6.00;99.90;;;;;;5033904;28;20290;-69
2023/04/29 10:11:55;;;;;;;0.80;0.80;;;6.00;99.90;;;;;;5033610;28;20198;-68
2023/04/29 10:14:23;;;;;;;1.25;1.17;;;6.00;99.90;;;;;;5015696;28;20281;-68
2023/04/29 10:16:53;;;;;;;0.60;0.60;;;5.90;99.90;;;;;;5033857;28;20194;-69
2023/04/29 10:19:33;;;;;;;0.70;0.70;;;5.80;99.90;;;;;;5015421;28;20267;-69
2023/04/29 10:22:05;;;;;;;0.60;0.60;;;5.80;99.90;;;;;;5045450;28;20561;-69
2023/04/29 10:24:34;;;;;;;0.70;0.70;;;5.80;99.90;;;;;;5053056;28;20190;-68
2023/04/29 10:27:01;;;;;;;0.60;0.60;;;5.90;99.90;;;;;;5035318;28;20197;-69
2023/04/29 10:29:33;;;;;;;0.70;0.70;;;6.00;99.90;;;;;;5053517;28;20209;-69
2023/04/29 10:32:00;;;;;;;0.70;0.70;;;6.00;99.90;;;;;;5035782;28;20194;-69
2023/04/29 10:34:27;;;;;;;0.70;0.70;;;6.00;99.90;;;;;;5052325;28;20196;-69
2023/04/29 10:36:55;;;;;;;0.70;0.70;;;5.90;99.90;;;;;;5053567;28;20189;-68
2023/04/29 10:39:31;;;;;;;0.77;0.77;;;5.80;99.90;;;;;;5035117;28;20194;-68
2023/04/29 10:41:57;;;;;;;0.68;0.68;;;5.70;99.90;;;;;;5033016;28;20292;-68
2023/04/29 10:44:23;;;;;;;2.15;1.80;;;5.70;99.90;;;;;;5032760;28;20190;-68
2023/04/29 10:46:48;;;;;;;0.80;0.80;;;5.60;99.90;;;;;;5042044;28;20302;-68
2023/04/29 10:49:14;;;;;;;1.00;1.00;;;5.60;99.90;;;;;;5047987;28;20248;-68
2023/04/29 10:51:44;;;;;;;0.70;0.70;;;5.50;99.90;;;;;;5043072;28;20204;-68
2023/04/29 10:54:16;;;;;;;0.70;0.70;;;5.40;99.90;;;;;;5052650;28;20276;-68
2023/04/29 10:56:52;;;;;;;0.70;0.70;;;5.40;99.90;;;;;;5052463;28;20185;-68
2023/04/29 10:59:27;;;;;;;0.70;0.70;;;5.50;99.90;;;;;;5016068;28;20660;-68
2023/04/29 11:01:53;;;;;;;0.70;0.70;;;5.60;99.90;;;;;;5015079;28;20205;-69
2023/04/29 11:04:21;;;;;;;0.68;0.68;;;6.10;99.90;;;;;;5033179;28;20206;-69
2023/04/29 11:06:54;;;;;;;0.70;0.70;;;6.60;99.90;;;;;;5033151;28;20209;-69
2023/04/29 11:09:25;;;;;;;0.70;0.70;;;7.20;99.90;;;;;;5015177;28;20212;-69
2023/04/29 11:12:04;;;;;;;0.70;0.70;;;8.10;99.90;;;;;;5015441;28;20194;-69
2023/04/29 11:14:37;;;;;;;0.70;0.70;;;8.90;99.90;;;;;;5033043;28;20550;-69
2023/04/29 11:17:16;;;;;;;0.60;0.60;;;9.70;99.90;;;;;;5034689;28;20729;-69
2023/04/29 11:19:50;;;;;;;0.82;0.77;;;10.30;99.90;;;;;;5052763;28;20271;-69
2023/04/29 11:22:18;;;;;;;1.95;1.02;;;10.10;99.90;;;;;;5052721;28;20244;-69
2023/04/29 11:24:54;;;;;;;0.60;0.60;;;9.50;99.90;;;;;;5055237;28;20194;-69
2023/04/29 11:27:24;;;;;;;0.70;0.70;;;8.80;99.90;;;;;;5038757;28;20201;-69
2023/04/29 11:29:54;;;;;;;0.60;0.60;;;8.40;99.90;;;;;;5056939;28;20677;-69
2023/04/29 11:32:22;;;;;;;0.60;0.60;;;8.30;99.90;;;;;;5056587;28;20201;-70
2023/04/29 11:34:47;;;;;;;0.52;0.52;;;8.60;99.90;;;;;;5035468;28;20709;-69
2023/04/29 11:37:22;;;;;;;0.60;0.60;;;8.90;99.90;;;;;;5036401;28;20197;-69
2023/04/29 11:39:49;;;;;;;0.60;0.60;;;9.10;99.90;;;;;;5034970;28;20238;-69
2023/04/29 11:42:19;;;;;;;0.60;0.60;;;8.80;99.90;;;;;;5039334;28;20201;-70
2023/04/29 11:44:45;;;;;;;0.60;0.60;;;8.80;99.90;;;;;;5056691;28;20193;-70
2023/04/29 11:47:11;;;;;;;0.60;0.60;;;8.90;99.90;;;;;;5056601;28;20603;-70
2023/04/29 11:49:37;;;;;;;0.70;0.70;;;8.80;99.90;;;;;;5038434;28;20660;-70
2023/04/29 11:52:03;;;;;;;0.60;0.60;;;8.90;99.90;;;;;;5056650;28;20190;-70
2023/04/29 11:54:29;;;;;;;0.60;0.60;;;9.10;99.90;;;;;;5056203;28;20189;-70
2023/04/29 11:56:57;;;;;;;0.60;0.60;;;9.70;99.90;;;;;;5038646;28;20300;-70
2023/04/29 11:59:23;;;;;;;0.60;0.60;;;10.80;99.90;;;;;;5056279;28;20197;-70
2023/04/29 12:01:49;;;;;;;0.50;0.50;;;11.80;99.90;;;;;;5055813;28;20263;-70
2023/04/29 12:04:16;;;;;;;0.50;0.50;;;12.70;99.90;;;;;;5038315;28;20221;-70
2023/04/29 12:06:42;;;;;;;0.60;0.60;;;13.10;99.90;;;;;;5056115;28;20681;-70
2023/04/29 12:09:08;;;;;;;0.50;0.50;;;12.60;99.90;;;;;;5056146;28;20672;-71
2023/04/29 12:11:35;;;;;;;0.50;0.50;;;12.70;99.90;;;;;;5056018;28;20192;-70
2023/04/29 12:14:04;;;;;;;0.40;0.40;;;12.50;99.90;;;;;;5055984;28;20197;-70
2023/04/29 12:16:32;;;;;;;0.40;0.40;;;12.70;99.90;;;;;;5038021;28;20236;-71
2023/04/29 12:18:58;;;;;;;0.70;0.70;;;13.10;99.90;;;;;;5038164;28;20190;-70
2023/04/29 12:21:26;;;;;;;0.70;0.70;;;13.40;99.90;;;;;;5055209;28;20201;-70
2023/04/29 12:23:52;;;;;;;0.50;0.50;;;13.80;99.90;;;;;;5056158;28;20182;-70
2023/04/29 12:26:19;;;;;;;0.65;0.65;;;13.40;99.90;;;;;;5055770;28;20189;-71
2023/04/29 12:28:45;;;;;;;1.25;1.15;;;13.00;99.90;;;;;;5037739;28;20687;-70
2023/04/29 12:31:14;;;;;;;0.70;0.70;;;12.50;99.90;;;;;;5056067;28;20196;-70
2023/04/29 12:33:45;;;;;;;0.50;0.50;;;12.00;99.90;;;;;;5040207;28;20206;-70
2023/04/29 12:36:18;;;;;;;0.60;0.60;;;11.30;99.90;;;;;;5032086;28;20194;-70
2023/04/29 12:38:44;;;;;;;1.05;0.93;;;10.70;99.90;;;;;;5055250;28;20194;-70
2023/04/29 12:41:13;;;;;;;0.50;0.50;;;10.40;99.90;;;;;;5055115;28;20194;-68
2023/04/29 12:43:40;;;;;;;0.60;0.60;;;9.80;99.90;;;;;;5036923;28;20201;-69
2023/04/29 12:46:07;;;;;;;0.60;0.60;;;9.30;99.90;;;;;;5055484;28;20699;-69
2023/04/29 12:48:36;;;;;;;0.50;0.50;;;9.20;99.90;;;;;;5055122;28;20590;-69
2023/04/29 12:51:02;;;;;;;0.60;0.60;;;9.10;99.90;;;;;;5055435;28;20285;-69
2023/04/29 12:53:32;;;;;;;0.50;0.50;;;9.20;99.90;;;;;;5055418;28;20209;-69
2023/04/29 12:55:58;;;;;;;0.50;0.50;;;8.90;99.90;;;;;;5055423;28;20194;-69
2023/04/29 12:58:27;;;;;;;0.60;0.60;;;8.30;99.90;;;;;;5055187;28;20193;-69